createdAt,value
2019-06-25T00:01:44.310Z,22.90
2019-06-25T00:04:13.345Z,22.60
2019-06-25T00:06:42.321Z,22.60
2019-06-25T00:09:11.249Z,22.60
2019-06-25T00:11:40.273Z,22.40
2019-06-25T00:14:09.285Z,22.30
2019-06-25T00:16:38.384Z,22.30
2019-06-25T00:19:07.373Z,22.30
2019-06-25T00:21:36.325Z,22.20
2019-06-25T00:24:05.585Z,22.40
2019-06-25T00:26:34.609Z,22.40
2019-06-25T00:29:03.573Z,22.20
2019-06-25T00:31:32.682Z,22.00
2019-06-25T00:34:01.627Z,22.10
2019-06-25T00:36:30.518Z,21.90
2019-06-25T00:38:59.675Z,21.80
2019-06-25T00:41:28.641Z,21.70
2019-06-25T00:43:57.610Z,21.60
2019-06-25T00:46:26.626Z,21.60
2019-06-25T00:48:55.794Z,21.70
2019-06-25T00:51:24.740Z,21.70
2019-06-25T00:53:53.658Z,21.50
2019-06-25T00:56:22.609Z,21.40
2019-06-25T00:58:51.662Z,21.60
2019-06-25T01:01:20.651Z,21.40
2019-06-25T01:03:49.697Z,21.20
2019-06-25T01:06:18.642Z,21.20
2019-06-25T01:08:47.731Z,21.10
2019-06-25T01:11:16.776Z,21.10
2019-06-25T01:13:45.790Z,21.10
2019-06-25T01:16:14.840Z,21.20
2019-06-25T01:18:43.788Z,21.30
2019-06-25T01:21:12.881Z,21.40
2019-06-25T01:23:42.001Z,21.40
2019-06-25T01:26:10.928Z,21.50
2019-06-25T01:28:39.805Z,21.50
2019-06-25T01:31:08.744Z,21.60
2019-06-25T01:33:37.685Z,21.70
2019-06-25T01:36:06.632Z,21.60
2019-06-25T01:38:35.770Z,21.30
2019-06-25T01:41:04.717Z,21.10
2019-06-25T01:43:33.602Z,20.80
2019-06-25T01:46:02.530Z,20.70
2019-06-25T01:48:31.629Z,20.60
2019-06-25T01:51:00.606Z,20.60
2019-06-25T01:53:29.630Z,20.60
2019-06-25T01:55:58.584Z,20.50
2019-06-25T01:58:27.557Z,20.50
2019-06-25T02:00:56.961Z,20.40
2019-06-25T02:03:25.849Z,20.60
2019-06-25T02:05:54.752Z,20.50
2019-06-25T02:08:23.878Z,20.40
2019-06-25T02:10:52.841Z,20.20
2019-06-25T02:13:22.036Z,20.10
2019-06-25T02:15:51.004Z,20.10
2019-06-25T02:18:19.980Z,20.10
2019-06-25T02:20:48.981Z,20.40
2019-06-25T02:23:17.936Z,20.50
2019-06-25T02:25:46.923Z,20.50
2019-06-25T02:28:15.933Z,20.60
2019-06-25T02:31:01.526Z,20.70
2019-06-25T02:33:15.489Z,20.70
2019-06-25T02:35:44.497Z,20.70
2019-06-25T02:38:13.471Z,20.50
2019-06-25T02:40:42.443Z,20.40
2019-06-25T02:43:11.394Z,20.20
2019-06-25T02:45:40.344Z,20.30
2019-06-25T02:48:09.865Z,20.50
2019-06-25T02:50:38.849Z,20.40
2019-06-25T02:53:08.066Z,20.20
2019-06-25T02:55:37.141Z,19.90
2019-06-25T02:58:06.018Z,20.00
2019-06-25T03:00:34.997Z,20.00
2019-06-25T03:03:03.985Z,19.90
2019-06-25T03:05:33.020Z,19.90
2019-06-25T03:08:02.019Z,20.00
2019-06-25T03:10:31.034Z,20.10
2019-06-25T03:12:59.967Z,20.40
2019-06-25T03:15:28.913Z,20.30
2019-06-25T03:17:58.071Z,20.10
2019-06-25T03:20:27.013Z,19.90
2019-06-25T03:22:56.060Z,19.80
2019-06-25T03:25:24.972Z,19.60
2019-06-25T03:27:54.067Z,19.50
2019-06-25T03:30:23.044Z,19.60
2019-06-25T03:32:52.343Z,19.50
2019-06-25T03:35:21.266Z,19.70
2019-06-25T03:37:50.310Z,19.70
2019-06-25T03:40:19.279Z,19.70
2019-06-25T03:42:48.297Z,19.50
2019-06-25T03:45:17.238Z,19.80
2019-06-25T03:47:46.249Z,19.90
2019-06-25T03:50:15.221Z,20.00
2019-06-25T03:52:44.301Z,19.80
2019-06-25T03:55:13.268Z,19.70
2019-06-25T03:57:42.284Z,19.50
2019-06-25T04:00:11.277Z,19.40
2019-06-25T04:02:40.213Z,19.40
2019-06-25T04:05:09.332Z,19.40
2019-06-25T04:07:38.205Z,19.40
2019-06-25T04:10:07.273Z,19.40
2019-06-25T04:12:36.261Z,19.50
2019-06-25T04:15:05.709Z,19.60
2019-06-25T04:17:34.658Z,19.60
2019-06-25T04:20:03.974Z,19.50
2019-06-25T04:22:32.851Z,19.50
2019-06-25T04:25:02.399Z,19.50
2019-06-25T04:27:31.345Z,19.50
2019-06-25T04:30:00.327Z,19.60
2019-06-25T04:32:33.403Z,19.60
2019-06-25T04:35:00.049Z,19.80
2019-06-25T04:37:28.930Z,20.00
2019-06-25T04:39:57.965Z,20.00
2019-06-25T04:42:26.928Z,20.00
2019-06-25T04:44:55.905Z,20.20
2019-06-25T04:47:24.962Z,20.40
2019-06-25T04:49:53.942Z,20.60
2019-06-25T04:52:22.986Z,20.70
2019-06-25T04:54:52.036Z,20.60
2019-06-25T04:57:21.022Z,20.70
2019-06-25T04:59:49.943Z,20.60
2019-06-25T05:02:18.960Z,20.60
2019-06-25T05:04:47.871Z,20.80
2019-06-25T05:07:16.949Z,21.00
2019-06-25T05:09:45.933Z,21.10
2019-06-25T05:12:14.873Z,21.20
2019-06-25T05:14:43.856Z,21.20
2019-06-25T05:17:12.749Z,21.20
2019-06-25T05:19:41.851Z,21.20
2019-06-25T05:22:10.785Z,21.30
2019-06-25T05:24:39.771Z,21.50
2019-06-25T05:27:08.974Z,21.50
2019-06-25T05:29:37.937Z,21.60
2019-06-25T05:32:06.989Z,21.60
2019-06-25T05:34:35.865Z,21.80
2019-06-25T05:37:13.137Z,21.90
2019-06-25T05:39:42.066Z,21.90
2019-06-25T05:42:10.981Z,21.90
2019-06-25T05:44:39.995Z,21.80
2019-06-25T05:47:08.969Z,21.80
2019-06-25T05:49:37.865Z,21.80
2019-06-25T05:52:06.941Z,22.00
2019-06-25T05:54:35.949Z,22.10
2019-06-25T05:57:05.046Z,22.10
2019-06-25T05:59:37.000Z,22.20
2019-06-25T06:02:04.779Z,22.40
2019-06-25T06:04:33.700Z,22.50
2019-06-25T06:07:02.839Z,22.60
2019-06-25T06:09:31.788Z,22.70
2019-06-25T06:12:01.087Z,22.80
2019-06-25T06:14:30.139Z,22.80
2019-06-25T06:16:59.237Z,22.90
2019-06-25T06:19:28.185Z,22.90
2019-06-25T06:21:57.090Z,22.80
2019-06-25T06:24:26.124Z,23.00
2019-06-25T06:26:55.225Z,23.10
2019-06-25T06:29:24.232Z,23.10
2019-06-25T06:31:53.160Z,23.20
2019-06-25T06:34:22.358Z,23.30
2019-06-25T06:36:51.358Z,23.20
2019-06-25T06:39:20.346Z,23.30
2019-06-25T06:41:49.308Z,23.40
2019-06-25T06:44:18.322Z,23.40
2019-06-25T06:46:47.227Z,23.60
2019-06-25T06:49:16.297Z,23.60
2019-06-25T06:51:45.281Z,23.50
2019-06-25T06:54:14.454Z,23.70
2019-06-25T06:56:43.567Z,23.90
2019-06-25T06:59:12.529Z,23.90
2019-06-25T07:01:41.979Z,24.10
2019-06-25T07:04:11.091Z,24.10
2019-06-25T07:06:40.146Z,24.30
2019-06-25T07:09:09.474Z,24.70
2019-06-25T07:11:38.501Z,24.60
2019-06-25T07:14:07.504Z,24.70
2019-06-25T07:16:39.341Z,25.00
2019-06-25T07:19:07.184Z,25.30
2019-06-25T07:21:36.153Z,25.40
2019-06-25T07:24:05.476Z,25.30
2019-06-25T07:26:34.508Z,25.90
2019-06-25T07:29:03.509Z,26.20
2019-06-25T07:31:32.481Z,26.60
2019-06-25T07:34:09.318Z,27.00
2019-06-25T07:36:32.326Z,26.90
2019-06-25T07:39:01.265Z,27.00
2019-06-25T07:41:30.210Z,26.80
2019-06-25T07:43:59.341Z,27.00
2019-06-25T07:46:28.354Z,27.30
2019-06-25T07:48:57.423Z,27.70
2019-06-25T07:51:26.306Z,28.40
2019-06-25T07:53:55.341Z,28.60
2019-06-25T07:56:35.898Z,29.20
2019-06-25T07:58:55.071Z,29.40
2019-06-25T08:01:24.046Z,29.10
2019-06-25T08:03:53.055Z,28.70
2019-06-25T08:06:22.005Z,28.80
2019-06-25T08:08:51.081Z,29.60
2019-06-25T08:11:20.142Z,29.60
2019-06-25T08:13:49.098Z,29.00
2019-06-25T08:16:18.197Z,29.20
2019-06-25T08:18:47.165Z,30.20
2019-06-25T08:21:16.190Z,30.50
2019-06-25T08:23:46.387Z,30.20
2019-06-25T08:26:15.333Z,30.10
2019-06-25T08:28:44.239Z,30.50
2019-06-25T08:31:13.187Z,29.90
2019-06-25T08:33:42.261Z,29.70
2019-06-25T08:36:11.278Z,30.30
2019-06-25T08:38:40.163Z,30.40
2019-06-25T08:41:09.087Z,31.00
2019-06-25T08:43:38.149Z,30.50
2019-06-25T08:46:07.172Z,30.80
2019-06-25T08:48:36.089Z,31.20
2019-06-25T08:51:05.242Z,30.10
2019-06-25T08:53:34.228Z,29.90
2019-06-25T08:56:03.203Z,30.40
2019-06-25T08:58:32.161Z,31.00
2019-06-25T09:01:01.268Z,30.90
2019-06-25T09:03:30.163Z,30.60
2019-06-25T09:05:59.121Z,30.90
2019-06-25T09:08:28.087Z,31.80
2019-06-25T09:10:57.055Z,31.90
2019-06-25T09:13:26.021Z,32.40
2019-06-25T09:15:55.020Z,33.30
2019-06-25T09:18:24.030Z,33.80
2019-06-25T09:20:53.055Z,32.30
2019-06-25T09:23:21.922Z,32.80
2019-06-25T09:25:51.110Z,33.40
2019-06-25T09:28:20.065Z,33.20
2019-06-25T09:30:49.066Z,33.90
2019-06-25T09:33:18.257Z,33.80
2019-06-25T09:35:47.165Z,33.00
2019-06-25T09:38:16.052Z,33.20
2019-06-25T09:40:43.621Z,33.50
2019-06-25T09:43:11.146Z,33.60
2019-06-25T09:45:40.067Z,33.90
2019-06-25T09:48:09.251Z,34.00
2019-06-25T09:50:39.312Z,33.80
2019-06-25T09:53:08.299Z,33.50
2019-06-25T09:55:37.255Z,33.40
2019-06-25T09:58:06.224Z,33.70
2019-06-25T10:00:45.323Z,35.10
2019-06-25T10:03:14.576Z,35.80
2019-06-25T10:05:43.530Z,35.00
2019-06-25T10:08:12.658Z,34.60
2019-06-25T10:10:41.851Z,35.20
2019-06-25T10:13:10.911Z,35.40
2019-06-25T10:15:39.989Z,35.10
2019-06-25T10:18:08.964Z,33.50
2019-06-25T10:20:38.129Z,34.10
2019-06-25T10:23:07.205Z,34.40
2019-06-25T10:25:36.311Z,33.70
2019-06-25T10:28:05.375Z,34.90
2019-06-25T10:30:42.732Z,35.00
2019-06-25T10:33:11.826Z,34.50
2019-06-25T10:35:47.549Z,34.20
2019-06-25T10:38:11.709Z,35.20
2019-06-25T10:40:40.786Z,35.80
2019-06-25T10:43:09.855Z,36.40
2019-06-25T10:45:39.016Z,36.30
2019-06-25T10:48:08.151Z,35.40
2019-06-25T10:50:38.604Z,34.30
2019-06-25T10:53:07.866Z,33.90
2019-06-25T10:55:36.845Z,33.90
2019-06-25T10:58:05.813Z,33.80
2019-06-25T11:00:54.187Z,33.80
2019-06-25T11:03:23.278Z,33.80
2019-06-25T11:06:04.198Z,33.60
2019-06-25T11:08:22.934Z,32.60
2019-06-25T11:10:52.000Z,32.50
2019-06-25T11:13:21.017Z,33.40
2019-06-25T11:15:50.052Z,34.90
2019-06-25T11:18:19.186Z,34.60
2019-06-25T11:20:48.135Z,33.80
2019-06-25T11:23:17.274Z,33.10
2019-06-25T11:26:03.941Z,33.30
2019-06-25T11:28:17.041Z,34.40
2019-06-25T11:30:46.019Z,34.90
2019-06-25T11:33:15.448Z,34.40
2019-06-25T11:35:44.486Z,33.90
2019-06-25T11:38:13.448Z,33.50
2019-06-25T11:40:42.614Z,33.40
2019-06-25T11:43:11.790Z,33.20
2019-06-25T11:45:42.229Z,32.70
2019-06-25T11:48:11.214Z,32.60
2019-06-25T11:50:40.122Z,32.40
2019-06-25T11:53:09.156Z,32.30
2019-06-25T11:55:38.203Z,32.00
2019-06-25T11:58:07.228Z,32.00
2019-06-25T12:00:36.355Z,31.90
2019-06-25T12:03:05.436Z,31.90
2019-06-25T12:05:34.408Z,32.30
2019-06-25T12:08:03.487Z,32.60
2019-06-25T12:10:32.477Z,33.30
2019-06-25T12:13:01.540Z,33.30
2019-06-25T12:15:30.640Z,33.10
2019-06-25T12:17:59.595Z,33.00
2019-06-25T12:20:28.628Z,32.80
2019-06-25T12:22:57.717Z,32.80
2019-06-25T12:25:26.689Z,32.00
2019-06-25T12:27:55.661Z,32.00
2019-06-25T12:30:25.225Z,32.10
2019-06-25T12:32:54.144Z,32.60
2019-06-25T12:35:23.208Z,33.00
2019-06-25T12:37:52.218Z,32.70
2019-06-25T12:40:21.384Z,32.10
2019-06-25T12:42:50.335Z,32.10
2019-06-25T12:45:19.297Z,32.30
2019-06-25T12:47:48.343Z,32.10
2019-06-25T12:50:17.623Z,32.10
2019-06-25T12:52:46.763Z,32.30
2019-06-25T12:55:16.193Z,32.50
2019-06-25T12:57:45.470Z,32.90
2019-06-25T13:00:14.688Z,33.10
2019-06-25T13:02:43.749Z,32.60
2019-06-25T13:05:12.871Z,32.50
2019-06-25T13:07:42.080Z,32.40
2019-06-25T13:10:12.058Z,32.30
2019-06-25T13:12:41.181Z,32.10
2019-06-25T13:15:10.241Z,32.90
2019-06-25T13:17:40.765Z,33.50
2019-06-25T13:20:09.820Z,33.20
2019-06-25T13:22:38.997Z,33.30
2019-06-25T13:25:08.363Z,33.00
2019-06-25T13:27:37.408Z,33.00
2019-06-25T13:30:06.798Z,32.80
2019-06-25T13:32:35.863Z,32.70
2019-06-25T13:35:05.302Z,32.60
2019-06-25T13:37:42.693Z,32.70
2019-06-25T13:40:06.537Z,32.60
2019-06-25T13:42:35.647Z,33.20
2019-06-25T13:45:05.117Z,33.00
2019-06-25T13:47:34.097Z,33.00
2019-06-25T13:50:03.298Z,33.00
2019-06-25T13:52:32.205Z,32.70
2019-06-25T13:55:01.101Z,32.70
2019-06-25T13:57:30.192Z,32.50
2019-06-25T13:59:59.241Z,32.60
2019-06-25T14:02:28.293Z,33.20
2019-06-25T14:04:57.389Z,33.00
2019-06-25T14:07:26.557Z,33.00
2019-06-25T14:09:55.967Z,33.20
2019-06-25T14:12:24.997Z,32.90
2019-06-25T14:14:53.956Z,32.90
2019-06-25T14:17:23.179Z,33.10
2019-06-25T14:20:30.296Z,33.00
2019-06-25T14:22:59.501Z,33.90
2019-06-25T14:25:38.017Z,32.60
2019-06-25T14:28:16.717Z,32.70
2019-06-25T14:30:45.859Z,33.60
2019-06-25T14:33:14.972Z,33.20
2019-06-25T14:35:47.248Z,32.90
2019-06-25T14:38:16.473Z,33.60
2019-06-25T14:40:45.647Z,33.40
2019-06-25T14:43:14.702Z,33.50
2019-06-25T14:45:43.800Z,34.00
2019-06-25T14:48:12.866Z,33.40
2019-06-25T14:50:41.906Z,33.60
2019-06-25T14:53:10.989Z,33.50
2019-06-25T14:55:39.960Z,33.10
2019-06-25T14:58:09.037Z,33.20
2019-06-25T15:00:38.078Z,33.00
2019-06-25T15:03:07.054Z,32.90
2019-06-25T15:05:36.176Z,33.00
2019-06-25T15:08:05.190Z,33.10
2019-06-25T15:10:34.271Z,33.10
2019-06-25T15:13:03.426Z,33.00
2019-06-25T15:15:33.798Z,32.90
2019-06-25T15:18:03.047Z,33.40
2019-06-25T15:20:32.130Z,33.60
2019-06-25T15:23:01.090Z,33.40
2019-06-25T15:25:30.156Z,33.70
2019-06-25T15:27:59.418Z,33.40
2019-06-25T15:30:31.721Z,33.10
2019-06-25T15:33:00.638Z,33.40
2019-06-25T15:35:29.805Z,33.50
2019-06-25T15:37:58.961Z,33.30
2019-06-25T15:40:27.988Z,33.40
2019-06-25T15:42:57.068Z,33.80
2019-06-25T15:45:26.132Z,33.90
2019-06-25T15:47:55.125Z,33.90
2019-06-25T15:50:24.072Z,33.60
2019-06-25T15:52:53.043Z,33.70
2019-06-25T15:55:22.094Z,33.80
2019-06-25T15:57:51.553Z,33.80
2019-06-25T16:00:20.914Z,33.80
2019-06-25T16:02:49.981Z,33.60
2019-06-25T16:05:19.221Z,33.60
2019-06-25T16:07:48.480Z,33.80
2019-06-25T16:10:17.614Z,33.50
2019-06-25T16:12:46.683Z,33.50
2019-06-25T16:15:15.738Z,33.60
2019-06-25T16:17:44.729Z,33.60
2019-06-25T16:20:13.935Z,33.50
2019-06-25T16:22:42.930Z,33.30
2019-06-25T16:25:12.759Z,33.30
2019-06-25T16:27:41.741Z,33.20
2019-06-25T16:30:10.738Z,33.30
2019-06-25T16:32:39.769Z,33.20
2019-06-25T16:35:08.747Z,33.20
2019-06-25T16:37:37.780Z,33.30
2019-06-25T16:40:06.865Z,33.40
2019-06-25T16:42:35.969Z,33.40
2019-06-25T16:45:05.401Z,33.30
2019-06-25T16:47:34.457Z,33.10
2019-06-25T16:50:03.662Z,33.20
2019-06-25T16:52:32.872Z,33.20
2019-06-25T16:55:01.894Z,33.30
2019-06-25T16:57:30.968Z,33.20
2019-06-25T17:00:00.159Z,33.10
2019-06-25T17:02:34.047Z,33.00
2019-06-25T17:05:00.083Z,33.10
2019-06-25T17:07:29.248Z,33.10
2019-06-25T17:09:58.288Z,33.10
2019-06-25T17:12:27.291Z,33.00
2019-06-25T17:14:56.366Z,32.90
2019-06-25T17:17:25.740Z,32.70
2019-06-25T17:19:55.010Z,32.60
2019-06-25T17:22:23.950Z,32.50
2019-06-25T17:24:52.967Z,32.50
2019-06-25T17:27:22.039Z,32.40
2019-06-25T17:29:51.292Z,32.40
2019-06-25T17:32:20.393Z,32.40
2019-06-25T17:34:49.463Z,32.60
2019-06-25T17:37:18.669Z,32.60
2019-06-25T17:39:51.517Z,32.50
2019-06-25T17:42:18.619Z,32.40
2019-06-25T17:44:47.796Z,32.30
2019-06-25T17:47:16.886Z,32.00
2019-06-25T17:49:45.952Z,32.00
2019-06-25T17:52:15.044Z,31.90
2019-06-25T17:54:44.131Z,32.00
2019-06-25T17:57:13.159Z,32.10
2019-06-25T17:59:42.141Z,32.00
2019-06-25T18:02:11.380Z,32.00
2019-06-25T18:04:40.389Z,32.10
2019-06-25T18:07:09.465Z,32.10
2019-06-25T18:09:40.807Z,32.10
2019-06-25T18:12:09.538Z,32.10
2019-06-25T18:14:38.538Z,32.00
2019-06-25T18:17:07.785Z,32.00
2019-06-25T18:19:37.617Z,32.00
2019-06-25T18:22:06.726Z,32.00
2019-06-25T18:24:35.618Z,31.90
2019-06-25T18:27:04.900Z,31.90
2019-06-25T18:29:33.950Z,31.80
2019-06-25T18:32:08.511Z,31.70
2019-06-25T18:34:34.076Z,31.70
2019-06-25T18:37:03.096Z,31.60
2019-06-25T18:39:32.316Z,31.50
2019-06-25T18:42:01.438Z,31.50
2019-06-25T18:44:32.061Z,31.50
2019-06-25T18:47:02.211Z,31.50
2019-06-25T18:49:31.316Z,31.30
2019-06-25T18:52:00.366Z,31.20
2019-06-25T18:54:29.797Z,31.20
2019-06-25T18:56:59.021Z,31.10
2019-06-25T18:59:28.076Z,30.90
2019-06-25T19:02:00.229Z,31.00
2019-06-25T19:04:28.142Z,31.10
2019-06-25T19:06:57.244Z,31.00
2019-06-25T19:09:26.311Z,30.90
2019-06-25T19:11:55.393Z,30.80
2019-06-25T19:14:24.393Z,30.80
2019-06-25T19:16:53.570Z,30.80
2019-06-25T19:19:22.638Z,30.70
2019-06-25T19:21:51.680Z,30.50
2019-06-25T19:24:20.766Z,30.40
2019-06-25T19:26:49.825Z,32.50
2019-06-25T19:29:18.812Z,30.20
2019-06-25T19:31:47.805Z,30.30
2019-06-25T19:34:17.362Z,30.10
2019-06-25T19:36:46.498Z,30.00
2019-06-25T19:39:15.550Z,30.00
2019-06-25T19:41:44.879Z,30.00
2019-06-25T19:44:13.956Z,29.90
2019-06-25T19:46:43.221Z,29.80
2019-06-25T19:49:12.372Z,29.80
2019-06-25T19:51:41.358Z,29.70
2019-06-25T19:54:10.566Z,29.60
2019-06-25T19:56:39.622Z,29.50
2019-06-25T19:59:08.757Z,29.20
2019-06-25T20:01:37.903Z,28.90
2019-06-25T20:04:07.116Z,28.60
2019-06-25T20:06:36.148Z,28.40
2019-06-25T20:09:06.936Z,28.20
2019-06-25T20:11:36.011Z,28.40
2019-06-25T20:14:05.088Z,28.80
2019-06-25T20:16:34.380Z,28.90
2019-06-25T20:19:03.370Z,29.00
2019-06-25T20:21:32.522Z,28.90
2019-06-25T20:24:01.762Z,28.50
2019-06-25T20:26:31.011Z,28.20
2019-06-25T20:29:00.602Z,28.20
2019-06-25T20:31:29.719Z,28.30
2019-06-25T20:33:58.717Z,28.40
2019-06-25T20:36:27.659Z,28.10
2019-06-25T20:38:56.818Z,28.00
2019-06-25T20:41:28.819Z,27.90
2019-06-25T20:43:56.594Z,27.80
2019-06-25T20:46:26.080Z,27.80
2019-06-25T20:48:55.226Z,27.70
2019-06-25T20:51:24.346Z,27.60
2019-06-25T20:53:53.605Z,27.40
2019-06-25T20:56:22.613Z,27.30
2019-06-25T20:58:51.613Z,27.30
2019-06-25T21:01:20.750Z,27.10
2019-06-25T21:03:49.905Z,27.00
2019-06-25T21:06:18.986Z,27.20
2019-06-25T21:08:48.207Z,27.50
2019-06-25T21:11:29.157Z,27.50
2019-06-25T21:13:48.042Z,27.30
2019-06-25T21:16:17.084Z,27.50
2019-06-25T21:18:46.125Z,27.40
2019-06-25T21:21:15.173Z,27.60
2019-06-25T21:23:54.968Z,27.40
2019-06-25T21:26:15.138Z,27.40
2019-06-25T21:28:44.126Z,27.30
2019-06-25T21:31:13.533Z,27.40
2019-06-25T21:36:11.640Z,27.30
2019-06-25T21:38:40.786Z,27.30
2019-06-25T21:41:09.745Z,27.20
2019-06-25T21:43:38.832Z,27.00
2019-06-25T21:46:07.969Z,27.10
2019-06-25T21:48:36.960Z,27.00
2019-06-25T21:51:06.001Z,26.60
2019-06-25T21:53:35.239Z,26.70
2019-06-25T21:56:04.301Z,26.50
2019-06-25T21:58:33.390Z,26.50
2019-06-25T22:01:03.013Z,26.50
2019-06-25T22:03:32.285Z,26.20
2019-06-25T22:06:01.336Z,26.30
2019-06-25T22:08:30.551Z,26.20
2019-06-25T22:10:59.640Z,26.20
2019-06-25T22:13:28.692Z,26.10
2019-06-25T22:15:57.685Z,26.00
2019-06-25T22:18:26.597Z,26.00
2019-06-25T22:20:55.908Z,26.10
2019-06-25T22:23:25.110Z,26.30
2019-06-25T22:25:54.254Z,26.30
2019-06-25T22:28:23.585Z,26.10
2019-06-25T22:30:52.604Z,26.10
2019-06-25T22:33:21.530Z,26.10
2019-06-25T22:35:50.548Z,25.90
2019-06-25T22:38:19.599Z,25.70
2019-06-25T22:40:48.537Z,25.40
2019-06-25T22:43:17.685Z,25.40
2019-06-25T22:45:46.756Z,25.20
2019-06-25T22:48:15.798Z,25.20
2019-06-25T22:50:47.137Z,25.20
2019-06-25T22:53:15.682Z,25.30
2019-06-25T22:55:44.575Z,25.30
2019-06-25T22:58:13.610Z,25.40
2019-06-25T23:00:42.582Z,25.40
2019-06-25T23:03:11.561Z,25.40
2019-06-25T23:05:40.616Z,25.20
2019-06-25T23:08:09.641Z,25.10
2019-06-25T23:10:38.723Z,25.00
2019-06-25T23:13:07.810Z,25.20
2019-06-25T23:15:38.844Z,25.50
2019-06-25T23:18:07.749Z,25.50
2019-06-25T23:20:36.726Z,25.30
2019-06-25T23:23:06.077Z,25.00
2019-06-25T23:25:35.278Z,25.10
2019-06-25T23:28:04.276Z,25.30
2019-06-25T23:30:33.263Z,25.20
2019-06-25T23:33:02.311Z,25.10
2019-06-25T23:35:31.581Z,24.70
2019-06-25T23:38:00.567Z,24.70
2019-06-25T23:40:29.577Z,24.60
2019-06-25T23:43:09.895Z,24.60
2019-06-25T23:45:29.345Z,24.50
2019-06-25T23:47:58.363Z,24.50
2019-06-25T23:50:27.359Z,24.50
2019-06-25T23:52:56.356Z,24.60
2019-06-25T23:55:25.315Z,24.60
2019-06-25T23:57:54.356Z,24.50
